Time;durP1;ratioP1;P1;durP2;ratioP2;P2;SDS_P1;SDS_P2;PMS_P1;PMS_P2;Temp;Humidity;BMP_temperature;BMP_pressure;BME280_temperature;BME280_humidity;BME280_pressure;Samples;Min_cycle;Max_cycle;Signal;HPM_P1;HPM_P2
2022/01/27 00:00:43;;;;;;;;;;;;;;;7.13;52.20;100810.09;4363181;32;19979;-73
2022/01/27 00:05:46;;;;;;;;;;;;;;;7.27;51.77;100800.41;4367513;32;19975;-75
2022/01/27 00:08:17;;;;;;;;;;;;;;;7.26;51.86;100803.78;4363059;32;20608;-73
2022/01/27 00:10:52;;;;;;;;;;;;;;;7.22;51.75;100807.06;4354488;32;19979;-74
2022/01/27 00:13:23;;;;;;;;;;;;;;;7.10;52.14;100806.50;4356914;32;20281;-73
2022/01/27 00:15:59;;;;;;;;;;;;;;;7.28;51.05;100812.47;4361110;32;19979;-73
2022/01/27 00:18:26;;;;;;;;;;;;;;;6.78;52.50;100808.47;4354776;32;19975;-75
2022/01/27 00:20:53;;;;;;;;;;;;;;;7.10;51.83;100806.50;4353771;32;20038;-73
2022/01/27 00:23:19;;;;;;;;;;;;;;;7.08;51.52;100803.84;4359183;32;20026;-74
2022/01/27 00:25:46;;;;;;;;;;;;;;;7.11;51.60;100808.25;4365967;32;20309;-73
2022/01/27 00:28:13;;;;;;;;;;;;;;;6.82;52.34;100794.91;4370129;32;19974;-73
2022/01/27 00:30:40;;;;;;;;;;;;;;;6.96;51.99;100786.16;4365566;32;19991;-74
2022/01/27 00:33:08;;;;;;;;;;;;;;;7.07;51.42;100796.06;4357960;32;19979;-73
2022/01/27 00:35:36;;;;;;;;;;;;;;;6.98;51.48;100794.81;4359143;32;20029;-74
2022/01/27 00:38:03;;;;;;;;;;;;;;;6.87;51.98;100793.44;4355108;32;19991;-74
2022/01/27 00:40:30;;;;;;;;;;;;;;;7.05;51.77;100792.53;4362907;32;19997;-73
2022/01/27 00:42:57;;;;;;;;;;;;;;;6.39;53.34;100802.31;4353499;32;19994;-73
2022/01/27 00:45:24;;;;;;;;;;;;;;;6.94;51.93;100790.34;4354571;32;20007;-73
2022/01/27 00:47:51;;;;;;;;;;;;;;;7.04;51.67;100795.91;4361953;32;20022;-73
2022/01/27 00:50:19;;;;;;;;;;;;;;;6.85;52.21;100800.22;4355285;32;19987;-73
2022/01/27 00:52:53;;;;;;;;;;;;;;;6.95;51.88;100807.53;4355790;32;19983;-74
2022/01/27 00:55:22;;;;;;;;;;;;;;;6.70;52.53;100799.50;4360025;32;19998;-73
2022/01/27 00:58:21;;;;;;;;;;;;;;;6.80;52.17;100801.72;4354389;32;19990;-73
2022/01/27 01:01:00;;;;;;;;;;;;;;;6.83;51.79;100799.28;4361585;32;19990;-73
2022/01/27 01:03:35;;;;;;;;;;;;;;;6.81;51.81;100798.31;4369604;32;19987;-73
2022/01/27 01:14:42;;;;;;;;;;;;;;;7.01;50.98;100791.50;4366960;32;20030;-73
2022/01/27 01:19:12;;;;;;;;;;;;;;;6.80;51.55;100773.41;4371268;32;20490;-74
2022/01/27 01:32:18;;;;;;;;;;;;;;;7.07;50.76;100775.47;4377610;32;20653;-73
2022/01/27 01:34:48;;;;;;;;;;;;;;;7.10;50.60;100766.19;4370842;32;19975;-73
2022/01/27 01:37:18;;;;;;;;;;;;;;;7.16;50.38;100755.28;4371999;32;19979;-74
2022/01/27 01:39:45;;;;;;;;;;;;;;;6.96;51.00;100763.00;4378668;32;19993;-74
2022/01/27 01:42:12;;;;;;;;;;;;;;;6.85;51.18;100764.19;4369856;32;20266;-74
2022/01/27 01:44:39;;;;;;;;;;;;;;;6.44;52.29;100760.56;4378084;32;20042;-74
2022/01/27 01:47:06;;;;;;;;;;;;;;;6.36;52.26;100761.91;4369747;32;20333;-75
2022/01/27 01:49:33;;;;;;;;;;;;;;;6.47;52.21;100760.72;4371466;32;20317;-74
2022/01/27 01:52:04;;;;;;;;;;;;;;;6.69;51.32;100754.00;4374805;32;20033;-74
2022/01/27 01:54:31;;;;;;;;;;;;;;;6.99;50.67;100758.00;4374120;32;20518;-74
2022/01/27 01:56:58;;;;;;;;;;;;;;;7.04;50.59;100765.03;4371848;32;19979;-74
2022/01/27 01:59:25;;;;;;;;;;;;;;;7.01;50.43;100770.03;4372768;32;20314;-74
2022/01/27 02:01:52;;;;;;;;;;;;;;;6.95;50.75;100766.34;4377979;32;19991;-74
2022/01/27 02:04:19;;;;;;;;;;;;;;;6.80;50.79;100764.81;4371489;32;20372;-74
2022/01/27 02:06:51;;;;;;;;;;;;;;;6.92;50.87;100773.06;4369706;32;19991;-74
2022/01/27 02:09:27;;;;;;;;;;;;;;;6.90;51.05;100767.88;4370009;32;19991;-74
2022/01/27 02:20:11;;;;;;;;;;;;;;;6.57;51.58;100753.44;4370411;32;19987;-74
2022/01/27 02:22:38;;;;;;;;;;;;;;;6.70;51.13;100748.94;4369586;32;19987;-73
2022/01/27 02:25:05;;;;;;;;;;;;;;;6.59;51.55;100734.69;4359890;32;20030;-74
2022/01/27 02:27:32;;;;;;;;;;;;;;;6.57;51.65;100735.41;4378095;32;19991;-74
2022/01/27 02:29:59;;;;;;;;;;;;;;;6.58;51.64;100721.78;4372602;32;19983;-74
2022/01/27 02:32:26;;;;;;;;;;;;;;;6.46;51.65;100722.06;4378939;32;20031;-74
2022/01/27 02:34:53;;;;;;;;;;;;;;;6.12;53.12;100729.88;4378019;32;19975;-75
2022/01/27 02:37:20;;;;;;;;;;;;;;;6.32;52.55;100734.28;4371127;32;20317;-75
2022/01/27 02:39:47;;;;;;;;;;;;;;;6.30;52.66;100723.03;4371517;32;20018;-74
2022/01/27 02:42:21;;;;;;;;;;;;;;;6.37;52.44;100722.50;4371286;32;19993;-74
2022/01/27 02:44:56;;;;;;;;;;;;;;;6.13;53.01;100711.09;4372854;32;19989;-75
2022/01/27 02:47:24;;;;;;;;;;;;;;;6.04;53.42;100707.25;4376502;32;19987;-74
2022/01/27 02:49:51;;;;;;;;;;;;;;;6.32;52.54;100708.59;4369734;32;19991;-74
2022/01/27 02:52:17;;;;;;;;;;;;;;;6.15;52.85;100699.16;4373071;32;19990;-75
2022/01/27 02:54:44;;;;;;;;;;;;;;;6.16;52.75;100716.34;4370872;32;19975;-74
2022/01/27 02:57:23;;;;;;;;;;;;;;;6.43;52.05;100712.53;4370221;32;20002;-74
2022/01/27 02:59:50;;;;;;;;;;;;;;;6.57;51.64;100704.56;4370658;32;20639;-74
2022/01/27 03:02:17;;;;;;;;;;;;;;;6.71;51.13;100711.22;4367518;32;20033;-74
2022/01/27 03:04:45;;;;;;;;;;;;;;;6.65;51.27;100705.81;4370479;32;19993;-75
2022/01/27 03:07:12;;;;;;;;;;;;;;;6.83;50.78;100709.22;4378874;32;19987;-74
2022/01/27 03:09:39;;;;;;;;;;;;;;;6.83;50.86;100698.91;4370862;32;19983;-75
2022/01/27 03:12:07;;;;;;;;;;;;;;;6.66;51.11;100710.12;4371147;32;20090;-74
2022/01/27 03:14:35;;;;;;;;;;;;;;;6.52;51.27;100715.53;4369901;32;19981;-75
2022/01/27 03:17:02;;;;;;;;;;;;;;;6.82;50.86;100728.00;4374661;32;19979;-74
2022/01/27 03:19:29;;;;;;;;;;;;;;;6.44;51.32;100734.84;4371359;32;19978;-75
2022/01/27 03:21:56;;;;;;;;;;;;;;;6.32;51.88;100731.72;4378813;32;19978;-74
2022/01/27 03:24:24;;;;;;;;;;;;;;;6.34;52.05;100735.22;4383926;32;19975;-74
2022/01/27 03:26:52;;;;;;;;;;;;;;;6.60;51.01;100725.28;4376899;32;19986;-74
2022/01/27 03:29:19;;;;;;;;;;;;;;;6.10;52.34;100723.78;4386010;32;20025;-74
2022/01/27 03:31:46;;;;;;;;;;;;;;;6.30;51.85;100720.47;4385402;32;19982;-74
2022/01/27 03:34:14;;;;;;;;;;;;;;;5.99;52.26;100729.28;4370440;32;19989;-74
2022/01/27 03:36:41;;;;;;;;;;;;;;;5.63;53.19;100730.00;4376545;32;19987;-74
2022/01/27 03:39:08;;;;;;;;;;;;;;;5.66;52.58;100722.47;4370913;32;20371;-74
2022/01/27 03:41:38;;;;;;;;;;;;;;;6.00;51.84;100720.78;4370097;32;19983;-74
2022/01/27 03:44:05;;;;;;;;;;;;;;;5.63;53.05;100712.91;4370707;32;19994;-74
2022/01/27 03:46:33;;;;;;;;;;;;;;;6.10;51.76;100708.37;4370756;32;20038;-74
2022/01/27 03:49:00;;;;;;;;;;;;;;;5.67;52.53;100706.22;4377773;32;19979;-74
2022/01/27 03:51:27;;;;;;;;;;;;;;;5.72;53.00;100697.06;4370622;32;20032;-74
2022/01/27 03:53:53;;;;;;;;;;;;;;;5.60;53.28;100677.66;4370724;32;19970;-74
2022/01/27 03:56:20;;;;;;;;;;;;;;;5.72;52.79;100691.94;4370625;32;19975;-74
2022/01/27 03:58:47;;;;;;;;;;;;;;;5.46;53.04;100690.66;4371336;32;19983;-75
2022/01/27 04:01:14;;;;;;;;;;;;;;;5.90;51.95;100687.66;4377185;32;20308;-75
2022/01/27 04:03:44;;;;;;;;;;;;;;;5.74;52.24;100685.16;4385267;32;19971;-75
2022/01/27 04:06:10;;;;;;;;;;;;;;;5.58;53.00;100684.44;4385467;32;19978;-74
2022/01/27 04:08:37;;;;;;;;;;;;;;;5.28;53.75;100693.16;4380528;32;20037;-74
2022/01/27 04:11:05;;;;;;;;;;;;;;;5.21;53.90;100696.22;4375677;32;20320;-74
2022/01/27 04:13:32;;;;;;;;;;;;;;;5.77;52.29;100690.47;4370684;32;20301;-73
2022/01/27 04:15:58;;;;;;;;;;;;;;;5.33;53.61;100702.00;4370365;32;19980;-74
2022/01/27 04:18:26;;;;;;;;;;;;;;;5.92;51.95;100695.47;4376215;32;19986;-73
2022/01/27 04:20:52;;;;;;;;;;;;;;;5.00;54.29;100691.72;4372809;32;19991;-75
2022/01/27 04:23:19;;;;;;;;;;;;;;;5.15;53.87;100698.47;4370201;32;19987;-74
2022/01/27 04:25:46;;;;;;;;;;;;;;;4.92;54.69;100702.41;4370310;32;20282;-74
2022/01/27 04:28:19;;;;;;;;;;;;;;;5.22;53.43;100705.69;4370538;32;20037;-74
2022/01/27 04:30:47;;;;;;;;;;;;;;;5.58;53.03;100699.84;4370010;32;19982;-75
2022/01/27 04:33:13;;;;;;;;;;;;;;;5.36;53.17;100707.28;4374189;32;20284;-74
2022/01/27 04:35:46;;;;;;;;;;;;;;;5.19;53.98;100698.69;4374450;32;20403;-74
2022/01/27 04:40:57;;;;;;;;;;;;;;;5.41;53.18;100692.09;4362223;32;20133;-74
2022/01/27 04:48:31;;;;;;;;;;;;;;;5.18;53.35;100701.19;4355641;32;19984;-74
2022/01/27 04:51:05;;;;;;;;;;;;;;;5.56;52.61;100704.00;4359094;32;20688;-74
2022/01/27 04:53:37;;;;;;;;;;;;;;;5.69;52.17;100702.94;4362536;32;20400;-74
2022/01/27 04:56:16;;;;;;;;;;;;;;;5.67;52.22;100698.53;4359644;32;19979;-74
2022/01/27 04:58:46;;;;;;;;;;;;;;;5.78;52.11;100707.66;4360229;32;19979;-75
2022/01/27 05:01:15;;;;;;;;;;;;;;;5.82;51.84;100699.28;4360313;32;20051;-74
2022/01/27 05:03:48;;;;;;;;;;;;;;;5.79;51.96;100699.13;4359299;32;19994;-75
2022/01/27 05:06:15;;;;;;;;;;;;;;;5.55;52.73;100692.00;4360166;32;20001;-74
2022/01/27 05:08:42;;;;;;;;;;;;;;;5.25;53.65;100693.00;4359740;32;20086;-74
2022/01/27 05:11:16;;;;;;;;;;;;;;;5.56;52.61;100693.75;4359678;32;20030;-74
2022/01/27 05:13:57;;;;;;;;;;;;;;;5.21;53.76;100693.66;4359901;32;19971;-74
2022/01/27 05:16:24;;;;;;;;;;;;;;;5.27;53.76;100681.13;4360580;32;19983;-74
2022/01/27 05:18:51;;;;;;;;;;;;;;;5.51;52.89;100687.47;4366119;32;20001;-74
2022/01/27 05:21:18;;;;;;;;;;;;;;;5.77;52.38;100687.87;4359511;32;20029;-74
2022/01/27 05:23:45;;;;;;;;;;;;;;;6.05;51.50;100691.03;4359354;32;19987;-74
2022/01/27 05:26:12;;;;;;;;;;;;;;;6.17;50.86;100692.44;4359596;32;19980;-74
2022/01/27 05:28:38;;;;;;;;;;;;;;;6.08;50.95;100702.25;4361534;32;19983;-75
2022/01/27 05:31:05;;;;;;;;;;;;;;;6.07;51.59;100691.09;4366050;32;20046;-74
2022/01/27 05:33:32;;;;;;;;;;;;;;;5.81;51.95;100689.81;4364928;32;20462;-75
2022/01/27 05:35:59;;;;;;;;;;;;;;;6.13;51.39;100698.25;4364541;32;20002;-74
2022/01/27 05:38:26;;;;;;;;;;;;;;;6.18;50.91;100694.19;4363834;32;19989;-76
2022/01/27 05:40:53;;;;;;;;;;;;;;;6.13;51.16;100690.53;4362060;32;19979;-73
2022/01/27 05:43:19;;;;;;;;;;;;;;;6.38;50.48;100688.31;4359329;32;19976;-74
2022/01/27 05:45:46;;;;;;;;;;;;;;;6.42;50.40;100685.06;4362362;32;20336;-73
2022/01/27 05:48:13;;;;;;;;;;;;;;;6.65;49.75;100682.66;4364425;32;19999;-74
2022/01/27 05:50:40;;;;;;;;;;;;;;;6.20;50.69;100672.00;4360504;32;19987;-74
2022/01/27 05:53:06;;;;;;;;;;;;;;;6.01;51.69;100686.56;4365387;32;20030;-73
2022/01/27 05:55:33;;;;;;;;;;;;;;;6.15;51.02;100673.47;4359177;32;19988;-72
2022/01/27 05:58:00;;;;;;;;;;;;;;;6.04;51.59;100681.56;4367404;32;19975;-73
2022/01/27 06:00:27;;;;;;;;;;;;;;;6.11;51.68;100676.72;4359292;32;19987;-73
2022/01/27 06:02:54;;;;;;;;;;;;;;;6.11;51.39;100677.59;4358481;32;20086;-73
2022/01/27 06:05:21;;;;;;;;;;;;;;;6.01;51.95;100672.81;4356067;32;19976;-74
2022/01/27 06:07:48;;;;;;;;;;;;;;;5.82;52.57;100673.59;4365745;32;20081;-72
2022/01/27 06:10:15;;;;;;;;;;;;;;;5.81;52.75;100667.56;4356493;32;19979;-72
2022/01/27 06:12:46;;;;;;;;;;;;;;;6.18;51.78;100663.34;4370358;32;19971;-72
2022/01/27 06:15:12;;;;;;;;;;;;;;;5.94;52.29;100666.50;4360755;32;19987;-74
2022/01/27 06:17:40;;;;;;;;;;;;;;;6.16;51.91;100662.38;4355821;32;19987;-73
2022/01/27 06:20:07;;;;;;;;;;;;;;;6.00;52.17;100664.25;4363656;32;19997;-73
2022/01/27 06:22:34;;;;;;;;;;;;;;;6.19;51.94;100654.78;4357799;32;20002;-73
2022/01/27 06:25:01;;;;;;;;;;;;;;;6.21;51.72;100663.47;4357886;32;19978;-76
2022/01/27 06:27:28;;;;;;;;;;;;;;;6.37;51.10;100671.09;4368909;32;19982;-77
2022/01/27 06:29:55;;;;;;;;;;;;;;;6.37;51.33;100673.66;4371082;32;19987;-77
2022/01/27 06:32:22;;;;;;;;;;;;;;;6.30;51.64;100669.06;4369346;32;19976;-74
2022/01/27 06:34:49;;;;;;;;;;;;;;;6.41;51.49;100672.97;4362559;32;19976;-73
2022/01/27 06:37:15;;;;;;;;;;;;;;;6.04;51.96;100676.41;4356182;32;19975;-74
2022/01/27 06:39:42;;;;;;;;;;;;;;;6.40;51.47;100684.09;4358011;32;19983;-73
2022/01/27 06:42:09;;;;;;;;;;;;;;;6.65;50.80;100692.94;4369963;32;19982;-72
2022/01/27 06:44:36;;;;;;;;;;;;;;;6.70;50.69;100696.59;4364270;32;20027;-75
2022/01/27 06:47:03;;;;;;;;;;;;;;;6.65;50.49;100692.94;4359782;32;20454;-73
2022/01/27 06:49:30;;;;;;;;;;;;;;;6.42;51.28;100702.19;4364036;32;19995;-71
2022/01/27 06:51:56;;;;;;;;;;;;;;;6.74;50.54;100713.94;4363808;32;19975;-71
2022/01/27 06:54:24;;;;;;;;;;;;;;;6.72;50.73;100715.56;4365570;32;20000;-71
2022/01/27 06:56:51;;;;;;;;;;;;;;;6.61;50.83;100722.78;4361061;32;19975;-71
2022/01/27 06:59:18;;;;;;;;;;;;;;;6.69;50.83;100724.00;4353805;32;20009;-71
2022/01/27 07:01:45;;;;;;;;;;;;;;;6.79;50.42;100720.16;4354649;32;19987;-72
2022/01/27 07:04:12;;;;;;;;;;;;;;;6.56;50.84;100718.22;4363685;32;20022;-72
2022/01/27 07:06:39;;;;;;;;;;;;;;;6.69;50.66;100715.41;4361189;32;20009;-72
2022/01/27 07:09:06;;;;;;;;;;;;;;;6.40;51.29;100712.38;4361732;32;20321;-71
2022/01/27 07:11:33;;;;;;;;;;;;;;;6.78;50.43;100710.69;4355690;32;20253;-71
2022/01/27 07:13:59;;;;;;;;;;;;;;;6.62;50.84;100718.53;4355420;32;19983;-71
2022/01/27 07:16:26;;;;;;;;;;;;;;;6.79;50.30;100704.72;4361797;32;19979;-76
2022/01/27 07:18:53;;;;;;;;;;;;;;;6.85;50.11;100702.41;4356931;32;19983;-72
2022/01/27 07:21:20;;;;;;;;;;;;;;;6.98;49.82;100706.41;4355889;32;19987;-72
2022/01/27 07:23:47;;;;;;;;;;;;;;;6.61;50.66;100701.34;4357100;32;19998;-73
2022/01/27 07:26:15;;;;;;;;;;;;;;;6.20;51.96;100702.84;4362331;32;20029;-72
2022/01/27 07:28:41;;;;;;;;;;;;;;;6.31;51.54;100690.50;4360768;32;19991;-72
2022/01/27 07:31:08;;;;;;;;;;;;;;;6.73;50.31;100695.06;4358392;32;19975;-78
2022/01/27 07:33:35;;;;;;;;;;;;;;;6.80;49.92;100692.75;4361710;32;19993;-73
2022/01/27 07:36:02;;;;;;;;;;;;;;;6.46;50.99;100686.06;4357655;32;20529;-77
2022/01/27 07:38:29;;;;;;;;;;;;;;;6.47;50.87;100686.12;4341828;32;19983;-74
2022/01/27 07:40:55;;;;;;;;;;;;;;;6.58;50.61;100685.75;4355411;32;20419;-74
2022/01/27 07:43:23;;;;;;;;;;;;;;;5.79;52.46;100683.72;4363340;32;20325;-74
2022/01/27 07:45:51;;;;;;;;;;;;;;;5.92;52.39;100670.66;4357883;32;20053;-74
2022/01/27 07:48:18;;;;;;;;;;;;;;;6.22;51.68;100670.38;4355832;32;19987;-73
2022/01/27 07:50:45;;;;;;;;;;;;;;;6.36;51.12;100674.47;4355197;32;19979;-76
2022/01/27 07:53:12;;;;;;;;;;;;;;;5.87;52.28;100677.28;4361512;32;20032;-79
2022/01/27 07:55:39;;;;;;;;;;;;;;;6.47;50.45;100668.13;4369303;32;20544;-73
2022/01/27 07:58:06;;;;;;;;;;;;;;;6.64;50.02;100665.47;4363797;32;19990;-72
2022/01/27 08:00:33;;;;;;;;;;;;;;;6.50;50.73;100673.41;4355451;32;20475;-73
2022/01/27 08:03:00;;;;;;;;;;;;;;;6.73;49.75;100663.28;4355298;32;19983;-73
2022/01/27 08:05:27;;;;;;;;;;;;;;;6.74;49.64;100662.47;4355467;32;20002;-73
2022/01/27 08:07:54;;;;;;;;;;;;;;;6.74;49.77;100652.19;4354651;32;19987;-73
2022/01/27 08:10:21;;;;;;;;;;;;;;;6.46;50.63;100661.22;4360360;32;20277;-73
2022/01/27 08:12:48;;;;;;;;;;;;;;;6.48;50.83;100664.75;4355501;32;20038;-72
2022/01/27 08:15:18;;;;;;;;;;;;;;;6.86;50.12;100663.03;4355105;32;20038;-73
2022/01/27 08:17:46;;;;;;;;;;;;;;;6.99;49.40;100660.19;4355299;32;19987;-74
2022/01/27 08:20:13;;;;;;;;;;;;;;;6.58;50.29;100654.91;4360349;32;19979;-75
2022/01/27 08:22:43;;;;;;;;;;;;;;;6.67;50.51;100665.59;4355253;32;19979;-72
2022/01/27 08:25:10;;;;;;;;;;;;;;;6.88;49.68;100665.66;4354246;32;19998;-73
2022/01/27 08:27:39;;;;;;;;;;;;;;;7.09;49.23;100658.00;4354153;32;20058;-72
2022/01/27 08:30:07;;;;;;;;;;;;;;;7.03;49.34;100665.47;4355166;32;20003;-75
2022/01/27 08:32:47;;;;;;;;;;;;;;;7.22;48.93;100662.88;4360915;32;19979;-73
2022/01/27 08:35:18;;;;;;;;;;;;;;;7.20;49.35;100659.31;4360510;32;19975;-73
2022/01/27 08:37:45;;;;;;;;;;;;;;;6.71;50.67;100657.19;4355118;32;19983;-73
2022/01/27 08:40:14;;;;;;;;;;;;;;;7.06;49.82;100655.28;4355299;32;19991;-77
2022/01/27 08:43:01;;;;;;;;;;;;;;;7.11;49.22;100666.66;4365690;32;19994;-72
2022/01/27 08:45:28;;;;;;;;;;;;;;;7.14;49.27;100643.63;4370223;32;20025;-73
2022/01/27 08:47:57;;;;;;;;;;;;;;;7.02;50.00;100654.28;4369355;32;19979;-75
2022/01/27 08:50:25;;;;;;;;;;;;;;;7.41;48.51;100644.78;4356239;32;19991;-75
2022/01/27 08:52:52;;;;;;;;;;;;;;;7.51;47.67;100655.47;4368861;32;20029;-75
2022/01/27 08:55:20;;;;;;;;;;;;;;;7.23;48.39;100654.31;4363133;32;19991;-75
2022/01/27 08:57:48;;;;;;;;;;;;;;;6.99;49.44;100655.03;4357441;32;20002;-74
2022/01/27 09:00:15;;;;;;;;;;;;;;;7.18;48.49;100673.84;4355000;32;19982;-76
2022/01/27 09:02:42;;;;;;;;;;;;;;;7.27;47.91;100656.19;4361930;32;19995;-75
2022/01/27 09:05:09;;;;;;;;;;;;;;;6.90;48.67;100658.91;4361497;32;19989;-76
2022/01/27 09:07:36;;;;;;;;;;;;;;;6.85;49.56;100655.22;4353303;32;19988;-76
2022/01/27 09:10:04;;;;;;;;;;;;;;;7.12;48.94;100661.59;4354787;32;19989;-75
2022/01/27 09:12:32;;;;;;;;;;;;;;;7.12;48.98;100665.84;4355876;32;20022;-76
2022/01/27 09:15:01;;;;;;;;;;;;;;;7.08;49.36;100654.53;4362057;32;19994;-75
2022/01/27 09:17:30;;;;;;;;;;;;;;;7.20;49.05;100649.03;4361508;32;20037;-75
2022/01/27 09:19:57;;;;;;;;;;;;;;;7.54;47.90;100660.75;4356722;32;19979;-75
2022/01/27 09:22:25;;;;;;;;;;;;;;;7.15;48.68;100678.88;4356245;32;19976;-76
2022/01/27 09:24:56;;;;;;;;;;;;;;;7.52;48.55;100667.53;4361269;32;20026;-75
2022/01/27 09:27:24;;;;;;;;;;;;;;;7.26;48.55;100659.59;4353567;32;19979;-75
2022/01/27 09:29:56;;;;;;;;;;;;;;;7.46;48.31;100674.19;4354878;32;19987;-76
2022/01/27 09:32:25;;;;;;;;;;;;;;;7.03;49.18;100676.63;4355751;32;20033;-76
2022/01/27 09:34:55;;;;;;;;;;;;;;;7.61;48.31;100678.22;4374014;32;19978;-79
2022/01/27 09:37:22;;;;;;;;;;;;;;;7.45;48.40;100677.56;4371422;32;19983;-77
2022/01/27 09:40:00;;;;;;;;;;;;;;;7.46;47.95;100674.19;4378985;32;19996;-74
2022/01/27 09:42:31;;;;;;;;;;;;;;;7.90;46.72;100667.41;4381118;32;19998;-75
2022/01/27 09:44:58;;;;;;;;;;;;;;;8.12;46.55;100663.97;4381573;32;20029;-74
2022/01/27 09:47:29;;;;;;;;;;;;;;;7.82;47.28;100658.50;4358133;32;20034;-74
2022/01/27 09:50:07;;;;;;;;;;;;;;;8.08;46.88;100661.22;4370901;32;20828;-75
2022/01/27 09:52:34;;;;;;;;;;;;;;;7.86;47.00;100657.78;4359948;32;20370;-74
2022/01/27 09:55:01;;;;;;;;;;;;;;;7.93;45.91;100657.22;4369381;32;19978;-74
2022/01/27 09:57:29;;;;;;;;;;;;;;;7.89;46.93;100657.03;4371052;32;19983;-74
2022/01/27 09:59:56;;;;;;;;;;;;;;;7.91;47.23;100658.88;4378715;32;19978;-75
2022/01/27 10:02:26;;;;;;;;;;;;;;;8.54;45.11;100657.84;4371366;32;20434;-74
2022/01/27 10:04:57;;;;;;;;;;;;;;;8.37;45.54;100655.47;4378530;32;20406;-74
2022/01/27 10:07:29;;;;;;;;;;;;;;;8.66;44.24;100658.31;4375369;32;20031;-74
2022/01/27 10:09:57;;;;;;;;;;;;;;;8.51;45.10;100643.13;4379165;32;19982;-73
2022/01/27 10:12:29;;;;;;;;;;;;;;;8.65;44.03;100635.91;4371288;32;19974;-74
2022/01/27 10:14:57;;;;;;;;;;;;;;;8.17;45.30;100633.22;4370220;32;19992;-73
2022/01/27 10:17:24;;;;;;;;;;;;;;;8.41;45.81;100620.37;4370610;32;20025;-74
2022/01/27 10:19:54;;;;;;;;;;;;;;;8.18;46.58;100624.66;4371445;32;20021;-74
2022/01/27 10:22:21;;;;;;;;;;;;;;;8.82;45.44;100619.31;4373146;32;20031;-76
2022/01/27 10:24:58;;;;;;;;;;;;;;;8.73;44.42;100608.66;4381429;32;20032;-73
2022/01/27 10:27:34;;;;;;;;;;;;;;;9.03;43.89;100602.81;4385926;32;19986;-76
2022/01/27 10:30:35;;;;;;;;;;;;;;;9.04;44.07;100594.25;4381755;32;20071;-73
2022/01/27 10:32:59;;;;;;;;;;;;;;;8.82;45.52;100592.63;4374433;32;19990;-74
2022/01/27 10:35:27;;;;;;;;;;;;;;;9.34;44.03;100593.53;4375196;32;20324;-74
2022/01/27 10:37:54;;;;;;;;;;;;;;;9.10;45.17;100591.88;4371979;32;20046;-74
2022/01/27 10:40:25;;;;;;;;;;;;;;;9.43;44.09;100579.19;4378945;32;19975;-73
2022/01/27 10:43:02;;;;;;;;;;;;;;;9.66;42.91;100577.34;4371348;32;20344;-73
2022/01/27 10:45:30;;;;;;;;;;;;;;;9.54;43.39;100571.81;4375878;32;20429;-77
2022/01/27 10:48:17;;;;;;;;;;;;;;;9.64;43.24;100568.69;4370127;32;20001;-74
2022/01/27 10:50:55;;;;;;;;;;;;;;;10.12;40.60;100555.47;4368845;32;19997;-73
2022/01/27 10:53:23;;;;;;;;;;;;;;;9.88;42.04;100557.31;4371180;32;19979;-74
2022/01/27 10:56:03;;;;;;;;;;;;;;;10.01;41.11;100549.09;4369511;32;20373;-73
2022/01/27 10:58:31;;;;;;;;;;;;;;;9.95;40.71;100548.91;4371009;32;19999;-73
2022/01/27 11:00:59;;;;;;;;;;;;;;;9.40;42.17;100548.09;4377063;32;19996;-74
2022/01/27 11:03:26;;;;;;;;;;;;;;;9.42;42.66;100545.56;4372668;32;19983;-72
2022/01/27 11:05:54;;;;;;;;;;;;;;;9.15;43.27;100556.72;4375779;32;20246;-73
2022/01/27 11:08:23;;;;;;;;;;;;;;;9.60;42.78;100560.75;4376493;32;19986;-73
2022/01/27 11:10:50;;;;;;;;;;;;;;;8.99;44.31;100542.44;4371541;32;19983;-74
2022/01/27 11:13:17;;;;;;;;;;;;;;;8.95;43.90;100542.28;4358923;32;19991;-74
2022/01/27 11:15:45;;;;;;;;;;;;;;;9.46;42.80;100542.25;4376282;32;20038;-76
2022/01/27 11:18:13;;;;;;;;;;;;;;;9.39;43.52;100535.13;4378694;32;19990;-74
2022/01/27 11:20:55;;;;;;;;;;;;;;;9.38;43.60;100533.34;4370008;32;19979;-76
2022/01/27 11:26:10;;;;;;;;;;;;;;;9.28;43.40;100516.69;4373635;32;20577;-73
2022/01/27 11:28:37;;;;;;;;;;;;;;;9.00;44.11;100520.09;4374555;32;20715;-72
2022/01/27 11:31:07;;;;;;;;;;;;;;;8.62;45.74;100517.09;4377166;32;20021;-72
2022/01/27 11:33:35;;;;;;;;;;;;;;;8.40;46.27;100519.75;4374366;32;19976;-75
2022/01/27 11:36:10;;;;;;;;;;;;;;;8.75;45.04;100519.25;4381005;32;20009;-73
2022/01/27 11:38:40;;;;;;;;;;;;;;;8.80;44.98;100511.66;4384213;32;20024;-72
2022/01/27 11:41:11;;;;;;;;;;;;;;;9.21;44.09;100500.12;4381035;32;20069;-72
2022/01/27 11:43:39;;;;;;;;;;;;;;;9.29;44.24;100509.00;4372407;32;19983;-72
2022/01/27 11:46:13;;;;;;;;;;;;;;;9.35;43.72;100502.25;4371760;32;20494;-73
2022/01/27 11:48:40;;;;;;;;;;;;;;;8.77;44.80;100489.19;4379379;32;20082;-73
2022/01/27 11:51:09;;;;;;;;;;;;;;;9.02;44.76;100484.84;4385587;32;19979;-73
2022/01/27 11:53:36;;;;;;;;;;;;;;;9.36;43.40;100489.41;4380811;32;19997;-72
2022/01/27 11:56:04;;;;;;;;;;;;;;;8.99;44.29;100477.00;4375770;32;20025;-72
2022/01/27 11:58:31;;;;;;;;;;;;;;;9.53;43.22;100482.16;4370341;32;20062;-74
2022/01/27 12:01:21;;;;;;;;;;;;;;;9.23;43.35;100477.81;4368865;32;19989;-73
2022/01/27 12:04:06;;;;;;;;;;;;;;;9.56;42.23;100471.91;4372996;32;19993;-73
2022/01/27 12:06:39;;;;;;;;;;;;;;;8.64;44.14;100479.28;4382622;32;20000;-73
2022/01/27 12:09:19;;;;;;;;;;;;;;;9.03;43.82;100481.44;4379949;32;20013;-74
2022/01/27 12:11:54;;;;;;;;;;;;;;;8.55;45.56;100478.97;4385545;32;20024;-74
2022/01/27 12:14:27;;;;;;;;;;;;;;;8.95;45.08;100470.00;4385356;32;19994;-73
2022/01/27 12:17:09;;;;;;;;;;;;;;;9.54;43.95;100473.59;4376573;32;19983;-73
2022/01/27 12:19:46;;;;;;;;;;;;;;;8.83;45.02;100481.66;4356684;32;20061;-74
2022/01/27 12:22:15;;;;;;;;;;;;;;;9.40;44.33;100475.75;4370564;32;20463;-72
2022/01/27 12:25:00;;;;;;;;;;;;;;;9.06;44.40;100468.63;4378742;32;19975;-73
2022/01/27 12:27:28;;;;;;;;;;;;;;;9.08;44.46;100479.88;4372315;32;19983;-73
2022/01/27 12:30:15;;;;;;;;;;;;;;;9.34;43.33;100470.38;4378207;32;20050;-73
2022/01/27 12:32:42;;;;;;;;;;;;;;;9.44;42.82;100461.19;4381374;32;19983;-72
2022/01/27 12:35:12;;;;;;;;;;;;;;;9.09;43.85;100466.12;4377044;32;19986;-75
2022/01/27 12:37:40;;;;;;;;;;;;;;;9.42;43.29;100457.72;4377186;32;19989;-73
2022/01/27 12:40:08;;;;;;;;;;;;;;;9.40;43.14;100454.19;4369565;32;19986;-73
2022/01/27 12:42:39;;;;;;;;;;;;;;;9.31;44.00;100449.63;4369877;32;19990;-75
2022/01/27 12:45:07;;;;;;;;;;;;;;;9.61;43.23;100444.50;4376737;32;19991;-74
2022/01/27 12:47:37;;;;;;;;;;;;;;;10.00;42.46;100433.56;4370701;32;19999;-76
2022/01/27 12:50:09;;;;;;;;;;;;;;;10.35;41.28;100421.59;4376008;32;20639;-75
2022/01/27 12:52:42;;;;;;;;;;;;;;;10.68;40.41;100420.72;4381050;32;19994;-75
2022/01/27 12:55:11;;;;;;;;;;;;;;;10.41;41.14;100420.91;4376732;32;19983;-80
2022/01/27 12:57:55;;;;;;;;;;;;;;;10.05;42.09;100412.97;4377936;32;19994;-76
2022/01/27 13:00:22;;;;;;;;;;;;;;;10.23;42.25;100411.75;4370737;32;19996;-79
2022/01/27 13:02:51;;;;;;;;;;;;;;;10.04;42.67;100398.31;4365811;32;19997;-76
2022/01/27 13:05:18;;;;;;;;;;;;;;;10.52;41.28;100390.97;4382709;32;19971;-75
2022/01/27 13:07:47;;;;;;;;;;;;;;;10.09;42.24;100387.25;4383745;32;19997;-75
2022/01/27 13:10:19;;;;;;;;;;;;;;;10.15;41.68;100384.84;4376696;32;20118;-79
2022/01/27 13:12:52;;;;;;;;;;;;;;;10.35;41.86;100368.97;4375828;32;19978;-75
2022/01/27 13:15:21;;;;;;;;;;;;;;;10.13;42.00;100367.50;4385241;32;20499;-75
2022/01/27 13:18:06;;;;;;;;;;;;;;;9.45;43.34;100359.63;4385950;32;20001;-75
2022/01/27 13:23:12;;;;;;;;;;;;;;;9.22;44.72;100357.25;4386255;32;20068;-74
2022/01/27 13:25:40;;;;;;;;;;;;;;;8.37;47.17;100361.41;4383388;32;19997;-75
2022/01/27 13:28:10;;;;;;;;;;;;;;;8.41;47.50;100361.53;4385652;32;20040;-76
2022/01/27 13:30:37;;;;;;;;;;;;;;;8.52;47.07;100355.00;4385768;32;20047;-76
2022/01/27 13:33:12;;;;;;;;;;;;;;;8.88;46.52;100354.47;4381444;32;19985;-75
2022/01/27 13:35:43;;;;;;;;;;;;;;;8.34;47.41;100351.00;4371058;32;20589;-76
2022/01/27 13:38:19;;;;;;;;;;;;;;;8.36;47.88;100354.50;4364093;32;20045;-76
2022/01/27 13:43:36;;;;;;;;;;;;;;;9.09;45.89;100352.50;4369868;32;19998;-74